createdAt,value
2022-07-27T00:03:39.937Z,2.15
2022-07-27T00:08:37.513Z,1.98
2022-07-27T00:13:34.944Z,1.90
2022-07-27T00:18:33.429Z,2.03
2022-07-27T00:23:30.998Z,1.75
2022-07-27T00:28:28.639Z,2.00
2022-07-27T00:33:26.176Z,1.90
2022-07-27T00:38:23.476Z,1.85
2022-07-27T00:43:21.484Z,2.60
2022-07-27T00:48:18.963Z,1.92
2022-07-27T00:53:17.085Z,2.10
2022-07-27T00:58:14.954Z,2.03
2022-07-27T01:03:12.297Z,2.28
2022-07-27T01:08:15.148Z,2.78
2022-07-27T01:13:13.521Z,2.30
2022-07-27T01:18:29.689Z,2.42
2022-07-27T01:23:27.908Z,2.20
2022-07-27T01:28:25.464Z,2.45
2022-07-27T01:33:26.298Z,2.33
2022-07-27T01:38:24.044Z,2.55
2022-07-27T01:43:21.926Z,2.20
2022-07-27T01:48:19.210Z,3.13
2022-07-27T01:53:16.507Z,2.47
2022-07-27T01:58:14.113Z,2.30
2022-07-27T02:03:12.208Z,2.53
2022-07-27T02:08:09.918Z,1.92
2022-07-27T02:13:21.947Z,2.15
2022-07-27T02:18:33.614Z,2.38
2022-07-27T02:23:38.531Z,2.20
2022-07-27T02:28:36.842Z,1.98
2022-07-27T02:33:34.238Z,2.20
2022-07-27T02:38:31.487Z,1.95
2022-07-27T02:43:28.888Z,2.58
2022-07-27T02:48:26.218Z,2.10
2022-07-27T02:53:23.488Z,2.25
2022-07-27T02:58:21.433Z,2.35
2022-07-27T03:03:18.838Z,2.47
2022-07-27T03:08:16.293Z,2.25
2022-07-27T03:13:13.637Z,2.33
2022-07-27T03:18:10.963Z,2.28
2022-07-27T03:23:08.262Z,2.85
2022-07-27T03:28:05.877Z,2.50
2022-07-27T03:33:03.263Z,2.20
2022-07-27T03:38:00.808Z,2.03
2022-07-27T03:42:58.737Z,2.85
2022-07-27T03:47:57.427Z,1.88
2022-07-27T03:52:58.213Z,1.92
2022-07-27T03:57:55.718Z,2.40
2022-07-27T04:02:53.069Z,2.75
2022-07-27T04:07:54.889Z,2.30
2022-07-27T04:12:52.598Z,2.40
2022-07-27T04:17:55.152Z,2.03
2022-07-27T04:22:54.537Z,1.92
2022-07-27T04:27:54.798Z,2.67
2022-07-27T04:32:53.004Z,2.28
2022-07-27T04:37:58.857Z,1.90
2022-07-27T04:42:56.867Z,2.13
2022-07-27T04:47:54.247Z,2.05
2022-07-27T04:52:53.057Z,2.10
2022-07-27T04:57:50.451Z,2.20
2022-07-27T05:02:47.678Z,2.40
2022-07-27T05:07:44.994Z,2.45
2022-07-27T05:12:42.353Z,1.95
2022-07-27T05:17:39.877Z,2.83
2022-07-27T05:22:39.881Z,1.90
2022-07-27T05:27:43.671Z,2.95
2022-07-27T05:32:53.212Z,2.35
2022-07-27T05:37:50.554Z,3.13
2022-07-27T05:42:47.887Z,2.70
2022-07-27T05:47:45.179Z,2.70
2022-07-27T05:52:43.745Z,2.75
2022-07-27T05:57:41.493Z,3.75
2022-07-27T06:02:39.548Z,2.65
2022-07-27T06:07:55.361Z,2.90
2022-07-27T06:12:52.968Z,2.45
2022-07-27T06:17:52.880Z,2.72
2022-07-27T06:22:53.006Z,2.88
2022-07-27T06:27:50.442Z,2.80
2022-07-27T06:32:47.851Z,3.55
2022-07-27T06:37:45.266Z,2.33
2022-07-27T06:42:42.553Z,2.00
2022-07-27T06:47:48.906Z,2.55
2022-07-27T06:52:48.283Z,2.45
2022-07-27T06:57:46.625Z,2.10
2022-07-27T07:02:59.301Z,2.25
2022-07-27T07:07:57.197Z,2.50
2022-07-27T07:12:56.287Z,2.97
2022-07-27T07:17:54.582Z,2.58
2022-07-27T07:22:52.033Z,2.28
2022-07-27T07:27:49.795Z,2.58
2022-07-27T07:32:47.799Z,2.70
2022-07-27T07:37:45.057Z,2.22
2022-07-27T07:43:02.737Z,2.47
2022-07-27T07:48:00.278Z,3.13
2022-07-27T07:52:57.800Z,2.50
2022-07-27T07:57:56.031Z,2.80
2022-07-27T08:02:56.150Z,2.67
2022-07-27T08:07:54.898Z,2.58
2022-07-27T08:12:55.541Z,2.67
2022-07-27T08:17:52.803Z,2.55
2022-07-27T08:22:50.039Z,2.53
2022-07-27T08:27:47.613Z,2.45
2022-07-27T08:32:53.873Z,3.20
2022-07-27T08:37:51.310Z,2.25
2022-07-27T08:42:49.315Z,2.63
2022-07-27T08:52:45.025Z,1.95
2022-07-27T08:57:42.325Z,2.17
2022-07-27T09:02:41.440Z,2.88
2022-07-27T09:07:38.995Z,2.58
2022-07-27T09:12:36.451Z,2.50
2022-07-27T09:17:50.495Z,2.38
2022-07-27T09:22:52.693Z,2.63
2022-07-27T09:27:54.558Z,3.05
2022-07-27T09:33:07.597Z,2.80
2022-07-27T09:38:21.181Z,2.72
2022-07-27T09:44:19.761Z,3.10
2022-07-27T09:48:36.484Z,3.00
2022-07-27T09:53:44.071Z,2.75
2022-07-27T09:58:59.440Z,3.70
2022-07-27T10:03:59.041Z,3.45
2022-07-27T10:08:58.093Z,3.67
2022-07-27T10:13:56.910Z,3.83
2022-07-27T10:19:07.929Z,3.93
2022-07-27T10:24:08.323Z,4.30
2022-07-27T10:29:15.269Z,3.97
2022-07-27T10:34:13.502Z,4.47
2022-07-27T10:39:11.106Z,3.50
2022-07-27T10:44:17.755Z,3.88
2022-07-27T10:49:23.376Z,3.40
2022-07-27T10:54:40.532Z,3.40
2022-07-27T11:00:06.887Z,3.45
2022-07-27T11:04:57.813Z,3.78
2022-07-27T11:10:10.403Z,3.47
2022-07-27T11:15:08.213Z,3.67
2022-07-27T11:20:06.043Z,3.65
2022-07-27T11:25:04.194Z,3.22
2022-07-27T11:30:01.492Z,3.20
2022-07-27T11:34:58.825Z,4.05
2022-07-27T11:40:04.173Z,4.00
2022-07-27T11:45:05.390Z,4.40
2022-07-27T11:50:12.320Z,3.40
2022-07-27T11:55:09.949Z,3.58
2022-07-27T12:00:11.985Z,3.03
2022-07-27T12:05:11.501Z,3.50
2022-07-27T12:10:09.480Z,3.53
2022-07-27T12:20:38.528Z,3.72
2022-07-27T12:25:36.765Z,3.83
2022-07-27T12:30:42.661Z,3.72
2022-07-27T12:35:46.999Z,2.92
2022-07-27T12:40:47.845Z,3.65
2022-07-27T12:45:46.600Z,3.40
2022-07-27T12:50:46.789Z,3.90
2022-07-27T12:55:44.934Z,4.38
2022-07-27T13:00:42.290Z,3.97
2022-07-27T13:05:40.006Z,3.88
2022-07-27T13:10:38.474Z,3.20
2022-07-27T13:15:36.457Z,3.92
2022-07-27T13:20:33.888Z,3.30
2022-07-27T13:25:31.314Z,3.00
2022-07-27T13:30:28.651Z,3.80
2022-07-27T13:35:26.118Z,3.20
2022-07-27T13:40:23.573Z,3.20
2022-07-27T13:45:21.182Z,3.03
2022-07-27T13:50:20.003Z,2.97
2022-07-27T13:55:18.226Z,3.10
2022-07-27T14:00:17.078Z,3.53
2022-07-27T14:05:15.922Z,2.78
2022-07-27T14:10:31.663Z,3.00
2022-07-27T14:15:29.284Z,2.72
2022-07-27T14:20:26.681Z,3.33
2022-07-27T14:25:24.504Z,3.00
2022-07-27T14:30:22.553Z,2.78
2022-07-27T14:35:22.109Z,3.08
2022-07-27T14:40:20.134Z,3.20
2022-07-27T14:45:23.790Z,3.33
2022-07-27T14:50:41.164Z,3.20
2022-07-27T14:55:42.613Z,2.40
2022-07-27T15:00:40.349Z,4.07
2022-07-27T15:05:50.577Z,3.45
2022-07-27T15:10:49.333Z,2.70
2022-07-27T15:15:48.975Z,2.58
2022-07-27T15:20:47.406Z,2.47
2022-07-27T15:25:45.247Z,3.00
2022-07-27T15:30:42.544Z,2.10
2022-07-27T15:35:39.985Z,2.67
2022-07-27T15:40:37.348Z,2.20
2022-07-27T15:45:38.857Z,2.15
2022-07-27T15:50:38.548Z,1.90
2022-07-27T16:00:41.310Z,2.60
2022-07-27T16:05:40.457Z,2.83
2022-07-27T16:10:39.072Z,2.78
2022-07-27T16:15:57.464Z,2.65
2022-07-27T16:20:55.839Z,2.70
2022-07-27T16:26:05.084Z,2.95
2022-07-27T16:31:05.439Z,3.15
2022-07-27T16:36:03.075Z,3.55
2022-07-27T16:41:00.522Z,3.95
2022-07-27T16:46:02.813Z,3.78
2022-07-27T16:51:01.263Z,3.70
2022-07-27T16:55:58.643Z,3.17
2022-07-27T17:00:56.006Z,3.33
2022-07-27T17:05:53.826Z,3.00
2022-07-27T17:10:51.658Z,3.00
2022-07-27T17:15:49.526Z,2.90
2022-07-27T17:20:46.979Z,2.35
2022-07-27T17:25:45.012Z,2.50
2022-07-27T17:30:42.419Z,2.78
2022-07-27T17:35:39.793Z,2.75
2022-07-27T17:40:37.087Z,3.50
2022-07-27T17:45:34.394Z,3.63
2022-07-27T17:50:31.635Z,3.17
2022-07-27T17:55:29.094Z,3.83
2022-07-27T18:00:26.630Z,3.00
2022-07-27T18:05:24.164Z,3.42
2022-07-27T18:10:21.655Z,3.03
2022-07-27T18:15:37.831Z,2.97
2022-07-27T18:20:36.043Z,3.30
2022-07-27T18:25:33.649Z,3.65
2022-07-27T18:30:31.170Z,3.45
2022-07-27T18:35:28.729Z,3.65
2022-07-27T18:40:26.277Z,3.03
2022-07-27T18:45:34.311Z,3.22
2022-07-27T18:50:37.086Z,3.55
2022-07-27T18:55:37.440Z,3.83
2022-07-27T19:00:34.968Z,4.10
2022-07-27T19:05:40.400Z,3.88
2022-07-27T19:10:40.519Z,3.78
2022-07-27T19:15:38.819Z,3.25
2022-07-27T19:20:39.106Z,4.00
2022-07-27T19:25:37.370Z,3.95
2022-07-27T19:30:34.855Z,4.38
2022-07-27T19:35:32.156Z,4.00
2022-07-27T19:40:45.910Z,4.30
2022-07-27T19:45:44.360Z,3.70
